WIOK/KTG METAR and TAF weather

Enter ICAO airport designator
Station Type Date Time Source
WIOK METAR UTC NOAA

Error!


Station Type Date Time Source
WIOK Decoded METAR UTC NOAA

Error!

Station Type Date Time Source
WIOK TAF 2016/07/26 06:50 UTC NOAA

TAF WIOK 260500Z 2606/2618 00000KT 8000 SCT012


Example: see airport list